sensor_id;sensor_type;location;lat;lon;timestamp;pressure;altitude;pressure_sealevel;temperature;humidity
81909;BME280;71372;43.514;1.512;2024-02-04T00:00:44;101663.84;;;7.77;82.69
81909;BME280;71372;43.514;1.512;2024-02-04T00:03:10;101659.41;;;7.78;82.25
81909;BME280;71372;43.514;1.512;2024-02-04T00:05:36;101655.84;;;7.79;82.58
81909;BME280;71372;43.514;1.512;2024-02-04T00:08:02;101666.44;;;7.80;82.77
81909;BME280;71372;43.514;1.512;2024-02-04T00:10:28;101666.44;;;7.80;83.05
81909;BME280;71372;43.514;1.512;2024-02-04T00:12:54;101666.44;;;7.80;82.30
81909;BME280;71372;43.514;1.512;2024-02-04T00:15:20;101663.84;;;7.77;82.86
81909;BME280;71372;43.514;1.512;2024-02-04T00:17:49;101660.25;;;7.80;82.44
81909;BME280;71372;43.514;1.512;2024-02-04T00:20:15;101661.19;;;7.76;82.43
81909;BME280;71372;43.514;1.512;2024-02-04T00:22:41;101675.38;;;7.73;82.30
81909;BME280;71372;43.514;1.512;2024-02-04T00:25:07;101661.28;;;7.68;82.82
81909;BME280;71372;43.514;1.512;2024-02-04T00:27:37;101671.88;;;7.67;82.49
81909;BME280;71372;43.514;1.512;2024-02-04T00:30:03;101665.78;;;7.60;83.03
81909;BME280;71372;43.514;1.512;2024-02-04T00:32:29;101662.25;;;7.61;83.14
81909;BME280;71372;43.514;1.512;2024-02-04T00:34:55;101667.59;;;7.58;83.44
81909;BME280;71372;43.514;1.512;2024-02-04T00:37:21;101665.78;;;7.57;83.11
81909;BME280;71372;43.514;1.512;2024-02-04T00:39:47;101664.94;;;7.55;82.72
81909;BME280;71372;43.514;1.512;2024-02-04T00:42:13;101669.41;;;7.50;82.81
81909;BME280;71372;43.514;1.512;2024-02-04T00:44:39;101667.66;;;7.46;82.98
81909;BME280;71372;43.514;1.512;2024-02-04T00:47:05;101666.88;;;7.39;83.02
81909;BME280;71372;43.514;1.512;2024-02-04T00:49:31;101665.97;;;7.40;82.91
81909;BME280;71372;43.514;1.512;2024-02-04T00:51:57;101663.31;;;7.40;82.89
81909;BME280;71372;43.514;1.512;2024-02-04T00:54:23;101668.66;;;7.37;82.92
81909;BME280;71372;43.514;1.512;2024-02-04T00:56:49;101670.44;;;7.33;83.33
81909;BME280;71372;43.514;1.512;2024-02-04T00:59:15;101670.50;;;7.27;82.97
81909;BME280;71372;43.514;1.512;2024-02-04T01:01:41;101678.50;;;7.20;83.11
81909;BME280;71372;43.514;1.512;2024-02-04T01:04:08;101679.38;;;7.20;83.38
81909;BME280;71372;43.514;1.512;2024-02-04T01:06:34;101678.56;;;7.15;83.34
81909;BME280;71372;43.514;1.512;2024-02-04T01:08:59;101676.81;;;7.11;83.09
81909;BME280;71372;43.514;1.512;2024-02-04T01:11:26;101678.59;;;7.12;83.50
81909;BME280;71372;43.514;1.512;2024-02-04T01:13:51;101675.91;;;7.15;83.42
81909;BME280;71372;43.514;1.512;2024-02-04T01:16:17;101660.88;;;7.17;83.47
81909;BME280;71372;43.514;1.512;2024-02-04T01:18:43;101671.44;;;7.23;83.10
81909;BME280;71372;43.514;1.512;2024-02-04T01:21:09;101668.75;;;7.26;82.98
81909;BME280;71372;43.514;1.512;2024-02-04T01:23:35;101673.13;;;7.30;83.32
81909;BME280;71372;43.514;1.512;2024-02-04T01:26:01;101665.16;;;7.30;82.95
81909;BME280;71372;43.514;1.512;2024-02-04T01:28:27;101666.97;;;7.28;83.07
81909;BME280;71372;43.514;1.512;2024-02-04T01:30:53;101673.13;;;7.30;82.79
81909;BME280;71372;43.514;1.512;2024-02-04T01:33:19;101670.53;;;7.26;82.85
81909;BME280;71372;43.514;1.512;2024-02-04T01:35:45;101661.72;;;7.24;83.03
81909;BME280;71372;43.514;1.512;2024-02-04T01:38:11;101659.97;;;7.20;82.68
81909;BME280;71372;43.514;1.512;2024-02-04T01:40:36;101665.25;;;7.20;82.71
81909;BME280;71372;43.514;1.512;2024-02-04T01:43:03;101659.94;;;7.21;82.83
81909;BME280;71372;43.514;1.512;2024-02-04T01:45:28;101658.19;;;7.22;82.54
81909;BME280;71372;43.514;1.512;2024-02-04T01:47:54;101661.72;;;7.22;82.82
81909;BME280;71372;43.514;1.512;2024-02-04T01:50:21;101646.72;;;7.23;82.52
81909;BME280;71372;43.514;1.512;2024-02-04T01:52:48;101653.75;;;7.25;82.42
81909;BME280;71372;43.514;1.512;2024-02-04T01:55:15;101655.53;;;7.25;82.95
81909;BME280;71372;43.514;1.512;2024-02-04T01:57:42;101653.75;;;7.25;82.75
81909;BME280;71372;43.514;1.512;2024-02-04T02:00:08;101650.25;;;7.23;82.05
81909;BME280;71372;43.514;1.512;2024-02-04T02:02:39;101646.72;;;7.23;82.72
81909;BME280;71372;43.514;1.512;2024-02-04T02:05:06;101651.16;;;7.18;82.56
81909;BME280;71372;43.514;1.512;2024-02-04T02:07:32;101660.88;;;7.17;82.32
81909;BME280;71372;43.514;1.512;2024-02-04T02:09:58;101661.75;;;7.16;82.71
81909;BME280;71372;43.514;1.512;2024-02-04T02:12:34;101667.09;;;7.13;82.63
81909;BME280;71372;43.514;1.512;2024-02-04T02:15:25;101674.19;;;7.07;82.47
81909;BME280;71372;43.514;1.512;2024-02-04T02:17:59;101671.56;;;7.05;82.67
81909;BME280;71372;43.514;1.512;2024-02-04T02:23:07;101658.38;;;7.00;82.56
81909;BME280;71372;43.514;1.512;2024-02-04T02:25:36;101660.13;;;7.01;82.39
81909;BME280;71372;43.514;1.512;2024-02-04T02:28:02;101664.53;;;7.01;82.76
81909;BME280;71372;43.514;1.512;2024-02-04T02:30:28;101667.19;;;7.02;82.51
81909;BME280;71372;43.514;1.512;2024-02-04T02:32:54;101671.59;;;7.02;82.85
81909;BME280;71372;43.514;1.512;2024-02-04T02:35:20;101668.03;;;7.04;82.90
81909;BME280;71372;43.514;1.512;2024-02-04T02:38:59;101665.38;;;7.06;82.97
81909;BME280;71372;43.514;1.512;2024-02-04T02:41:07;101667.09;;;7.10;83.00
81909;BME280;71372;43.514;1.512;2024-02-04T02:43:34;101658.28;;;7.13;82.87
81909;BME280;71372;43.514;1.512;2024-02-04T02:46:01;101647.66;;;7.16;82.65
81909;BME280;71372;43.514;1.512;2024-02-04T02:48:28;101641.44;;;7.18;82.74
81909;BME280;71372;43.514;1.512;2024-02-04T02:50:54;101639.66;;;7.20;82.65
81909;BME280;71372;43.514;1.512;2024-02-04T02:53:20;101647.69;;;7.13;82.61
81909;BME280;71372;43.514;1.512;2024-02-04T02:55:46;101640.63;;;7.10;82.85
81909;BME280;71372;43.514;1.512;2024-02-04T02:58:13;101634.47;;;7.07;83.08
81909;BME280;71372;43.514;1.512;2024-02-04T03:00:39;101643.31;;;7.06;82.75
81909;BME280;71372;43.514;1.512;2024-02-04T03:03:05;101653.91;;;7.04;83.07
81909;BME280;71372;43.514;1.512;2024-02-04T03:05:31;101652.16;;;7.03;83.01
81909;BME280;71372;43.514;1.512;2024-02-04T03:07:58;101653.94;;;7.02;83.33
81909;BME280;71372;43.514;1.512;2024-02-04T03:10:24;101647.78;;;6.97;83.06
81909;BME280;71372;43.514;1.512;2024-02-04T03:12:50;101635.41;;;6.98;83.08
81909;BME280;71372;43.514;1.512;2024-02-04T03:15:16;101639.84;;;6.99;82.90
81909;BME280;71372;43.514;1.512;2024-02-04T03:17:42;101631.91;;;7.00;82.88
81909;BME280;71372;43.514;1.512;2024-02-04T03:20:09;101648.66;;;6.98;82.98
81909;BME280;71372;43.514;1.512;2024-02-04T03:22:35;101643.44;;;6.92;83.22
81909;BME280;71372;43.514;1.512;2024-02-04T03:25:01;101650.50;;;6.90;83.16
81909;BME280;71372;43.514;1.512;2024-02-04T03:27:27;101647.88;;;6.88;83.44
81909;BME280;71372;43.514;1.512;2024-02-04T03:29:53;101650.56;;;6.81;83.02
81909;BME280;71372;43.514;1.512;2024-02-04T03:32:19;101643.56;;;6.70;83.35
81909;BME280;71372;43.514;1.512;2024-02-04T03:34:45;101640.97;;;6.66;83.59
81909;BME280;71372;43.514;1.512;2024-02-04T03:37:11;101633.06;;;6.64;83.43
81909;BME280;71372;43.514;1.512;2024-02-04T03:39:37;101634.81;;;6.65;83.13
81909;BME280;71372;43.514;1.512;2024-02-04T03:42:03;101638.34;;;6.64;83.59
81909;BME280;71372;43.514;1.512;2024-02-04T03:44:29;101641.84;;;6.66;83.23
81909;BME280;71372;43.514;1.512;2024-02-04T03:46:55;101648.91;;;6.67;83.22
81909;BME280;71372;43.514;1.512;2024-02-04T03:49:21;101640.94;;;6.70;83.73
81909;BME280;71372;43.514;1.512;2024-02-04T03:51:47;101647.09;;;6.72;83.14
81909;BME280;71372;43.514;1.512;2024-02-04T03:54:13;101654.16;;;6.70;83.10
81909;BME280;71372;43.514;1.512;2024-02-04T03:56:39;101650.69;;;6.65;83.21
81909;BME280;71372;43.514;1.512;2024-02-04T03:59:05;101649.81;;;6.63;83.31
81909;BME280;71372;43.514;1.512;2024-02-04T04:01:33;101647.19;;;6.57;83.54
81909;BME280;71372;43.514;1.512;2024-02-04T04:03:59;101648.09;;;6.55;83.38
81909;BME280;71372;43.514;1.512;2024-02-04T04:06:25;101650.72;;;6.56;83.32
81909;BME280;71372;43.514;1.512;2024-02-04T04:08:51;101646.34;;;6.54;83.15
81909;BME280;71372;43.514;1.512;2024-02-04T04:11:17;101632.25;;;6.52;83.30
81909;BME280;71372;43.514;1.512;2024-02-04T04:13:43;101632.22;;;6.55;83.39
81909;BME280;71372;43.514;1.512;2024-02-04T04:16:09;101631.34;;;6.56;83.18
81909;BME280;71372;43.514;1.512;2024-02-04T04:18:34;101631.34;;;6.54;83.39
81909;BME280;71372;43.514;1.512;2024-02-04T04:21:01;101630.47;;;6.52;83.21
81909;BME280;71372;43.514;1.512;2024-02-04T04:23:27;101626.94;;;6.50;83.37
81909;BME280;71372;43.514;1.512;2024-02-04T04:25:53;101620.78;;;6.51;83.06
81909;BME280;71372;43.514;1.512;2024-02-04T04:28:19;101611.97;;;6.52;82.99
81909;BME280;71372;43.514;1.512;2024-02-04T04:30:45;101622.50;;;6.55;83.25
81909;BME280;71372;43.514;1.512;2024-02-04T04:33:10;101614.56;;;6.57;83.12
81909;BME280;71372;43.514;1.512;2024-02-04T04:35:37;101618.06;;;6.60;83.06
81909;BME280;71372;43.514;1.512;2024-02-04T04:38:04;101613.63;;;6.62;83.14
81909;BME280;71372;43.514;1.512;2024-02-04T04:40:30;101613.63;;;6.65;83.21
81909;BME280;71372;43.514;1.512;2024-02-04T04:42:57;101614.50;;;6.67;83.13
81909;BME280;71372;43.514;1.512;2024-02-04T04:45:23;101611.84;;;6.69;83.13
81909;BME280;71372;43.514;1.512;2024-02-04T04:47:49;101609.16;;;6.70;82.77
81909;BME280;71372;43.514;1.512;2024-02-04T04:50:15;101602.09;;;6.72;83.09
81909;BME280;71372;43.514;1.512;2024-02-04T04:52:41;101601.19;;;6.73;83.02
81909;BME280;71372;43.514;1.512;2024-02-04T04:55:07;101606.50;;;6.73;83.17
81909;BME280;71372;43.514;1.512;2024-02-04T04:57:33;101610.91;;;6.74;83.36
81909;BME280;71372;43.514;1.512;2024-02-04T04:59:59;101604.75;;;6.76;82.92
81909;BME280;71372;43.514;1.512;2024-02-04T05:02:29;101607.38;;;6.77;82.60
81909;BME280;71372;43.514;1.512;2024-02-04T05:04:55;101594.13;;;6.79;83.00
81909;BME280;71372;43.514;1.512;2024-02-04T05:07:21;101600.28;;;6.81;82.96
81909;BME280;71372;43.514;1.512;2024-02-04T05:09:47;101608.22;;;6.81;82.86
81909;BME280;71372;43.514;1.512;2024-02-04T05:12:13;101617.13;;;6.70;83.19
81909;BME280;71372;43.514;1.512;2024-02-04T05:14:39;101609.19;;;6.69;83.11
81909;BME280;71372;43.514;1.512;2024-02-04T05:17:05;101618.88;;;6.70;82.94
81909;BME280;71372;43.514;1.512;2024-02-04T05:19:31;101628.63;;;6.62;82.80
81909;BME280;71372;43.514;1.512;2024-02-04T05:21:57;101632.22;;;6.50;83.26
81909;BME280;71372;43.514;1.512;2024-02-04T05:24:23;101624.31;;;6.53;83.40
81909;BME280;71372;43.514;1.512;2024-02-04T05:26:49;101624.31;;;6.52;82.83
81909;BME280;71372;43.514;1.512;2024-02-04T05:29:15;101624.28;;;6.50;83.12
81909;BME280;71372;43.514;1.512;2024-02-04T05:31:44;101624.31;;;6.52;83.15
81909;BME280;71372;43.514;1.512;2024-02-04T05:34:10;101625.19;;;6.52;82.96
81909;BME280;71372;43.514;1.512;2024-02-04T05:36:36;101619.00;;;6.53;82.91
81909;BME280;71372;43.514;1.512;2024-02-04T05:39:09;101612.81;;;6.54;82.90
81909;BME280;71372;43.514;1.512;2024-02-04T05:41:36;101613.69;;;6.56;82.55
81909;BME280;71372;43.514;1.512;2024-02-04T05:44:02;101611.03;;;6.58;82.93
81909;BME280;71372;43.514;1.512;2024-02-04T05:46:28;101624.28;;;6.56;82.30
81909;BME280;71372;43.514;1.512;2024-02-04T05:48:54;101624.28;;;6.56;82.89
81909;BME280;71372;43.514;1.512;2024-02-04T05:51:21;101607.53;;;6.56;83.01
81909;BME280;71372;43.514;1.512;2024-02-04T05:53:47;101618.97;;;6.56;83.18
81909;BME280;71372;43.514;1.512;2024-02-04T05:56:13;101624.28;;;6.56;82.40
81909;BME280;71372;43.514;1.512;2024-02-04T05:58:39;101624.28;;;6.56;82.54
81909;BME280;71372;43.514;1.512;2024-02-04T06:01:05;101632.19;;;6.58;82.64
81909;BME280;71372;43.514;1.512;2024-02-04T06:03:31;101631.28;;;6.60;82.55
81909;BME280;71372;43.514;1.512;2024-02-04T06:05:57;101641.00;;;6.60;82.51
81909;BME280;71372;43.514;1.512;2024-02-04T06:08:23;101650.69;;;6.59;82.22
81909;BME280;71372;43.514;1.512;2024-02-04T06:10:49;101664.81;;;6.58;82.49
81909;BME280;71372;43.514;1.512;2024-02-04T06:13:15;101666.59;;;6.56;82.68
81909;BME280;71372;43.514;1.512;2024-02-04T06:15:41;101671.06;;;6.51;82.99
81909;BME280;71372;43.514;1.512;2024-02-04T06:18:07;101668.44;;;6.39;82.72
81909;BME280;71372;43.514;1.512;2024-02-04T06:20:33;101666.69;;;6.41;82.67
81909;BME280;71372;43.514;1.512;2024-02-04T06:22:58;101668.44;;;6.42;82.82
81909;BME280;71372;43.514;1.512;2024-02-04T06:25:24;101672.00;;;6.39;82.75
81909;BME280;71372;43.514;1.512;2024-02-04T06:27:50;101679.03;;;6.39;82.60
81909;BME280;71372;43.514;1.512;2024-02-04T06:30:17;101679.06;;;6.34;82.89
81909;BME280;71372;43.514;1.512;2024-02-04T06:32:43;101687.00;;;6.33;83.05
81909;BME280;71372;43.514;1.512;2024-02-04T06:35:08;101687.88;;;6.32;82.91
81909;BME280;71372;43.514;1.512;2024-02-04T06:37:34;101679.06;;;6.33;83.01
81909;BME280;71372;43.514;1.512;2024-02-04T06:40:00;101681.69;;;6.34;83.09
81909;BME280;71372;43.514;1.512;2024-02-04T06:42:26;101682.59;;;6.32;82.83
81909;BME280;71372;43.514;1.512;2024-02-04T06:44:52;101681.72;;;6.31;82.96
81909;BME280;71372;43.514;1.512;2024-02-04T06:47:18;101672.03;;;6.29;82.74
81909;BME280;71372;43.514;1.512;2024-02-04T06:49:44;101682.63;;;6.29;83.13
81909;BME280;71372;43.514;1.512;2024-02-04T06:52:13;101678.22;;;6.28;83.19
81909;BME280;71372;43.514;1.512;2024-02-04T06:54:39;101683.50;;;6.26;83.23
81909;BME280;71372;43.514;1.512;2024-02-04T06:57:05;101677.34;;;6.21;83.56
81909;BME280;71372;43.514;1.512;2024-02-04T06:59:31;101677.38;;;6.17;83.36
81909;BME280;71372;43.514;1.512;2024-02-04T07:01:57;101678.25;;;6.15;83.29
81909;BME280;71372;43.514;1.512;2024-02-04T07:04:23;101674.72;;;6.13;83.23
81909;BME280;71372;43.514;1.512;2024-02-04T07:06:50;101682.66;;;6.15;82.98
81909;BME280;71372;43.514;1.512;2024-02-04T07:09:17;101686.16;;;6.15;82.99
81909;BME280;71372;43.514;1.512;2024-02-04T07:11:43;101688.84;;;6.12;83.56
81909;BME280;71372;43.514;1.512;2024-02-04T07:14:09;101692.34;;;6.13;83.08
81909;BME280;71372;43.514;1.512;2024-02-04T07:16:35;101695.88;;;6.13;83.46
81909;BME280;71372;43.514;1.512;2024-02-04T07:19:01;101689.72;;;6.18;83.33
81909;BME280;71372;43.514;1.512;2024-02-04T07:21:27;101691.47;;;6.19;83.40
81909;BME280;71372;43.514;1.512;2024-02-04T07:23:53;101687.94;;;6.20;83.66
81909;BME280;71372;43.514;1.512;2024-02-04T07:26:18;101692.31;;;6.24;83.84
81909;BME280;71372;43.514;1.512;2024-02-04T07:28:44;101694.97;;;6.24;83.30
81909;BME280;71372;43.514;1.512;2024-02-04T07:31:10;101699.34;;;6.26;83.36
81909;BME280;71372;43.514;1.512;2024-02-04T07:33:36;101698.47;;;6.26;83.37
81909;BME280;71372;43.514;1.512;2024-02-04T07:36:02;101687.91;;;6.29;83.54
81909;BME280;71372;43.514;1.512;2024-02-04T07:38:28;101699.34;;;6.32;83.30
81909;BME280;71372;43.514;1.512;2024-02-04T07:40:54;101694.06;;;6.32;83.55
81909;BME280;71372;43.514;1.512;2024-02-04T07:43:22;101702.00;;;6.31;83.56
81909;BME280;71372;43.514;1.512;2024-02-04T07:45:48;101706.41;;;6.30;83.38
81909;BME280;71372;43.514;1.512;2024-02-04T07:48:13;101709.97;;;6.28;83.29
81909;BME280;71372;43.514;1.512;2024-02-04T07:50:39;101707.31;;;6.28;83.19
81909;BME280;71372;43.514;1.512;2024-02-04T07:53:05;101719.66;;;6.23;83.48
81909;BME280;71372;43.514;1.512;2024-02-04T07:55:31;101719.66;;;6.23;84.24
81909;BME280;71372;43.514;1.512;2024-02-04T07:57:57;101719.66;;;6.24;83.75
81909;BME280;71372;43.514;1.512;2024-02-04T08:00:23;101719.66;;;6.29;83.84
81909;BME280;71372;43.514;1.512;2024-02-04T08:02:49;101724.91;;;6.33;83.65
81909;BME280;71372;43.514;1.512;2024-02-04T08:05:15;101722.25;;;6.35;83.83
81909;BME280;71372;43.514;1.512;2024-02-04T08:07:41;101724.00;;;6.39;83.42
81909;BME280;71372;43.514;1.512;2024-02-04T08:10:07;101738.13;;;6.41;83.61
81909;BME280;71372;43.514;1.512;2024-02-04T08:12:33;101739.88;;;6.42;83.44
81909;BME280;71372;43.514;1.512;2024-02-04T08:15:00;101739.88;;;6.42;83.47
81909;BME280;71372;43.514;1.512;2024-02-04T08:17:26;101731.91;;;6.39;83.69
81909;BME280;71372;43.514;1.512;2024-02-04T08:19:54;101730.16;;;6.44;83.92
81909;BME280;71372;43.514;1.512;2024-02-04T08:22:20;101732.78;;;6.49;83.45
81909;BME280;71372;43.514;1.512;2024-02-04T08:24:46;101733.66;;;6.49;83.54
81909;BME280;71372;43.514;1.512;2024-02-04T08:27:12;101736.28;;;6.51;83.71
81909;BME280;71372;43.514;1.512;2024-02-04T08:29:41;101743.38;;;6.45;83.58
81909;BME280;71372;43.514;1.512;2024-02-04T08:32:08;101748.72;;;6.39;83.61
81909;BME280;71372;43.514;1.512;2024-02-04T08:34:34;101751.34;;;6.36;83.51
81909;BME280;71372;43.514;1.512;2024-02-04T08:37:00;101744.28;;;6.37;83.52
81909;BME280;71372;43.514;1.512;2024-02-04T08:39:26;101753.09;;;6.39;83.23
81909;BME280;71372;43.514;1.512;2024-02-04T08:41:52;101757.53;;;6.40;83.66
81909;BME280;71372;43.514;1.512;2024-02-04T08:44:18;101738.13;;;6.35;84.13
81909;BME280;71372;43.514;1.512;2024-02-04T08:46:44;101746.91;;;6.43;83.64
81909;BME280;71372;43.514;1.512;2024-02-04T08:49:10;101746.03;;;6.44;83.49
81909;BME280;71372;43.514;1.512;2024-02-04T08:51:36;101750.41;;;6.50;83.57
81909;BME280;71372;43.514;1.512;2024-02-04T08:54:02;101736.28;;;6.49;83.75
81909;BME280;71372;43.514;1.512;2024-02-04T08:56:28;101741.56;;;6.51;83.78
81909;BME280;71372;43.514;1.512;2024-02-04T08:58:54;101745.09;;;6.50;83.13
81909;BME280;71372;43.514;1.512;2024-02-04T09:01:20;101753.03;;;6.56;83.79
81909;BME280;71372;43.514;1.512;2024-02-04T09:03:46;101748.56;;;6.62;83.92
81909;BME280;71372;43.514;1.512;2024-02-04T09:06:12;101754.78;;;6.60;83.42
81909;BME280;71372;43.514;1.512;2024-02-04T09:08:38;101753.88;;;6.62;83.74
81909;BME280;71372;43.514;1.512;2024-02-04T09:11:04;101752.06;;;6.70;83.91
81909;BME280;71372;43.514;1.512;2024-02-04T09:13:29;101753.81;;;6.79;83.90
81909;BME280;71372;43.514;1.512;2024-02-04T09:15:55;101751.16;;;6.78;84.19
81909;BME280;71372;43.514;1.512;2024-02-04T09:18:21;101751.13;;;6.82;83.62
81909;BME280;71372;43.514;1.512;2024-02-04T09:20:48;101750.22;;;6.91;83.99
81909;BME280;71372;43.514;1.512;2024-02-04T09:23:14;101750.16;;;7.00;83.76
81909;BME280;71372;43.514;1.512;2024-02-04T09:25:39;101764.22;;;7.08;83.58
81909;BME280;71372;43.514;1.512;2024-02-04T09:28:05;101749.19;;;7.13;83.16
81909;BME280;71372;43.514;1.512;2024-02-04T09:30:31;101750.03;;;7.18;82.96
81909;BME280;71372;43.514;1.512;2024-02-04T09:32:57;101749.13;;;7.24;82.84
81909;BME280;71372;43.514;1.512;2024-02-04T09:35:23;101749.09;;;7.25;82.88
81909;BME280;71372;43.514;1.512;2024-02-04T09:37:49;101748.19;;;7.28;82.99
81909;BME280;71372;43.514;1.512;2024-02-04T09:40:15;101748.16;;;7.31;82.82
81909;BME280;71372;43.514;1.512;2024-02-04T09:42:41;101737.56;;;7.36;82.68
81909;BME280;71372;43.514;1.512;2024-02-04T09:45:08;101746.31;;;7.42;82.43
81909;BME280;71372;43.514;1.512;2024-02-04T09:47:35;101748.91;;;7.50;82.83
81909;BME280;71372;43.514;1.512;2024-02-04T09:50:01;101745.31;;;7.57;82.84
81909;BME280;71372;43.514;1.512;2024-02-04T09:52:29;101743.50;;;7.62;82.89
81909;BME280;71372;43.514;1.512;2024-02-04T09:55:02;101743.47;;;7.65;82.50
81909;BME280;71372;43.514;1.512;2024-02-04T09:57:29;101741.69;;;7.70;82.23
81909;BME280;71372;43.514;1.512;2024-02-04T09:59:58;101737.22;;;7.72;82.31
81909;BME280;71372;43.514;1.512;2024-02-04T10:02:25;101743.34;;;7.77;81.71
81909;BME280;71372;43.514;1.512;2024-02-04T10:04:51;101743.31;;;7.80;81.67
81909;BME280;71372;43.514;1.512;2024-02-04T10:07:17;101739.81;;;7.78;82.12
81909;BME280;71372;43.514;1.512;2024-02-04T10:09:44;101748.66;;;7.77;81.71
81909;BME280;71372;43.514;1.512;2024-02-04T10:12:10;101747.84;;;7.71;81.76
81909;BME280;71372;43.514;1.512;2024-02-04T10:14:36;101761.16;;;7.63;81.88
81909;BME280;71372;43.514;1.512;2024-02-04T10:17:03;101755.91;;;7.55;81.24
81909;BME280;71372;43.514;1.512;2024-02-04T10:19:30;101751.47;;;7.57;81.83
81909;BME280;71372;43.514;1.512;2024-02-04T10:22:03;101755.03;;;7.56;81.35
81909;BME280;71372;43.514;1.512;2024-02-04T10:24:29;101751.47;;;7.62;81.81
81909;BME280;71372;43.514;1.512;2024-02-04T10:26:56;101741.63;;;7.73;81.80
81909;BME280;71372;43.514;1.512;2024-02-04T10:29:23;101730.91;;;7.87;81.73
81909;BME280;71372;43.514;1.512;2024-02-04T10:31:53;101743.19;;;7.97;81.21
81909;BME280;71372;43.514;1.512;2024-02-04T10:34:19;101748.34;;;8.09;81.90
81909;BME280;71372;43.514;1.512;2024-02-04T10:36:45;101744.72;;;8.18;81.36
81909;BME280;71372;43.514;1.512;2024-02-04T10:39:11;101753.44;;;8.26;81.05
81909;BME280;71372;43.514;1.512;2024-02-04T10:41:48;101746.41;;;8.25;80.80
81909;BME280;71372;43.514;1.512;2024-02-04T10:44:17;101735.78;;;8.25;80.76
81909;BME280;71372;43.514;1.512;2024-02-04T10:46:46;101733.97;;;8.30;80.59
81909;BME280;71372;43.514;1.512;2024-02-04T10:49:14;101727.75;;;8.33;80.97
81909;BME280;71372;43.514;1.512;2024-02-04T10:51:41;101728.50;;;8.45;80.82
81909;BME280;71372;43.514;1.512;2024-02-04T10:54:08;101723.91;;;8.58;80.43
81909;BME280;71372;43.514;1.512;2024-02-04T10:56:43;101717.69;;;8.61;80.08
81909;BME280;71372;43.514;1.512;2024-02-04T10:59:15;101710.41;;;8.75;80.18
81909;BME280;71372;43.514;1.512;2024-02-04T11:01:45;101707.56;;;8.89;80.58
81909;BME280;71372;43.514;1.512;2024-02-04T11:04:14;101716.22;;;9.03;80.01
81909;BME280;71372;43.514;1.512;2024-02-04T11:06:41;101723.16;;;9.12;79.29
81909;BME280;71372;43.514;1.512;2024-02-04T11:09:12;101720.50;;;9.12;79.26
81909;BME280;71372;43.514;1.512;2024-02-04T11:11:40;101728.44;;;9.15;79.48
81909;BME280;71372;43.514;1.512;2024-02-04T11:14:10;101725.81;;;9.10;79.62
81909;BME280;71372;43.514;1.512;2024-02-04T11:16:58;101731.28;;;9.01;79.75
81909;BME280;71372;43.514;1.512;2024-02-04T11:19:36;101729.69;;;8.89;79.34
81909;BME280;71372;43.514;1.512;2024-02-04T11:22:22;101730.75;;;8.74;79.11
81909;BME280;71372;43.514;1.512;2024-02-04T11:25:29;101727.31;;;8.69;79.52
81909;BME280;71372;43.514;1.512;2024-02-04T11:28:01;101721.19;;;8.64;79.50
81909;BME280;71372;43.514;1.512;2024-02-04T11:30:27;101724.63;;;8.71;79.83
81909;BME280;71372;43.514;1.512;2024-02-04T11:32:53;101718.44;;;8.70;79.61
81909;BME280;71372;43.514;1.512;2024-02-04T11:35:20;101706.06;;;8.69;79.75
81909;BME280;71372;43.514;1.512;2024-02-04T11:37:46;101707.81;;;8.70;79.92
81909;BME280;71372;43.514;1.512;2024-02-04T11:40:15;101698.13;;;8.68;78.81
81909;BME280;71372;43.514;1.512;2024-02-04T11:42:42;101702.47;;;8.72;79.76
81909;BME280;71372;43.514;1.512;2024-02-04T11:45:12;101698.81;;;8.81;79.51
81909;BME280;71372;43.514;1.512;2024-02-04T11:47:39;101690.75;;;8.90;80.14
81909;BME280;71372;43.514;1.512;2024-02-04T11:50:06;101687.88;;;9.02;79.37
81909;BME280;71372;43.514;1.512;2024-02-04T11:52:32;101680.69;;;9.08;79.74
81909;BME280;71372;43.514;1.512;2024-02-04T11:54:59;101680.59;;;9.15;79.35
81909;BME280;71372;43.514;1.512;2024-02-04T11:57:25;101670.75;;;9.20;78.87
81909;BME280;71372;43.514;1.512;2024-02-04T11:59:53;101661.78;;;9.28;78.83
81909;BME280;71372;43.514;1.512;2024-02-04T12:02:20;101664.41;;;9.30;78.96
81909;BME280;71372;43.514;1.512;2024-02-04T12:04:48;101657.13;;;9.41;78.49
81909;BME280;71372;43.514;1.512;2024-02-04T12:07:14;101652.50;;;9.52;78.36
81909;BME280;71372;43.514;1.512;2024-02-04T12:09:41;101646.13;;;9.61;78.50
81909;BME280;71372;43.514;1.512;2024-02-04T12:12:07;101653.19;;;9.62;78.28
81909;BME280;71372;43.514;1.512;2024-02-04T12:14:38;101647.94;;;9.57;78.08
81909;BME280;71372;43.514;1.512;2024-02-04T12:17:09;101636.66;;;9.45;77.69
81909;BME280;71372;43.514;1.512;2024-02-04T12:19:36;101630.31;;;9.53;78.26
81909;BME280;71372;43.514;1.512;2024-02-04T12:22:02;101626.50;;;9.66;78.33
81909;BME280;71372;43.514;1.512;2024-02-04T12:24:36;101619.25;;;9.76;77.96
81909;BME280;71372;43.514;1.512;2024-02-04T12:27:04;101621.75;;;9.84;78.08
81909;BME280;71372;43.514;1.512;2024-02-04T12:29:30;101619.09;;;9.82;77.50
81909;BME280;71372;43.514;1.512;2024-02-04T12:32:02;101615.72;;;9.76;77.14
81909;BME280;71372;43.514;1.512;2024-02-04T12:34:29;101612.03;;;9.83;77.86
81909;BME280;71372;43.514;1.512;2024-02-04T12:36:59;101600.34;;;9.90;77.49
81909;BME280;71372;43.514;1.512;2024-02-04T12:39:29;101606.44;;;9.96;77.54
81909;BME280;71372;43.514;1.512;2024-02-04T12:41:58;101605.41;;;10.02;77.02
81909;BME280;71372;43.514;1.512;2024-02-04T12:44:24;101598.41;;;9.98;76.94
81909;BME280;71372;43.514;1.512;2024-02-04T12:46:51;101597.72;;;9.88;76.61
81909;BME280;71372;43.514;1.512;2024-02-04T12:49:21;101597.00;;;9.80;76.79
81909;BME280;71372;43.514;1.512;2024-02-04T12:51:48;101592.66;;;9.76;76.98
81909;BME280;71372;43.514;1.512;2024-02-04T12:54:14;101593.66;;;9.69;77.21
81909;BME280;71372;43.514;1.512;2024-02-04T12:59:32;101585.63;;;9.74;77.27
81909;BME280;71372;43.514;1.512;2024-02-04T13:02:06;101583.81;;;9.74;77.08
81909;BME280;71372;43.514;1.512;2024-02-04T13:04:36;101581.31;;;9.66;77.05